Darstellungsparameter: Aktuell verwendete Einstellungen:
Skalierung der Graphiken ... ?
xyx+y,   Skalierungsfaktor:      Skalierung: Modus: x, Faktor: 1
Darstellungszeitraum ... ?
Vom - - bis: - -   Zeitraum: 25.06.2004 - 27.06.2004
Min/Max/Avg-Anzeige ... ?
Zeige MMA aktuell
Zeige MMA Monat
Zeige MMA alles
Zeige --A aktuell
Zeige --A Monat
Zeige --A alles
Keine MMA-Anzeige
MMA:
Keine MMA-Graphiken
MMA-Basis: 25.06.2004 - 27.06.2004
Quicknavigation für Darstellung... ?
Tage:      1T, 2T, 3T, 5T -1T -2T -3T -5T +1T +2T +3T +5T
Wochen: 1W, 2W, 3W -1W -2W -3W +1W +2W +3W
Monate: 1M, 3M, 6M -1M -3M -6M +1M +3M +6M
Jahre:    1J, 3J, 5J, 10J -1J -3J -5J -10J +1J +3J +5J +10J
Nutze für die Darstellung ... ?
Originaldaten oder Mittelwerte auf ...
Stundenbasis Tagesbasis Wochenbasis
Monatsbasis Jahresbasis      Datenbasis: Original-Daten
Darstellen als:
Statistik (Auto) Statistik J:M      Darstellung:
Zur Graphik,    zurück zur Übersicht aller Sensoren.
 
Tabellarische Datenbersicht: ?
 
Sensor: Nr:Datum:Temp:Abs-Feuchte:Windchill:Wind:
Aussen-T/F 1 25-06-2004 00:10:02 12.6 C 9.29 g/m*3 12.6 C 0 km/h
2 25-06-2004 00:22:02 12.8 C 9.41 g/m*3 12.8 C 0 km/h
3 25-06-2004 00:34:02 12.7 C 9.35 g/m*3 12.7 C 0 km/h
4 25-06-2004 00:46:01 12.5 C 9.24 g/m*3 12.5 C 0 km/h
5 25-06-2004 00:58:01 12 C 8.95 g/m*3 12 C 0 km/h
6 25-06-2004 01:10:01 11.8 C 8.95 g/m*3 11.8 C 0 km/h
7 25-06-2004 01:22:01 11.6 C 8.94 g/m*3 11.6 C 0 km/h
8 25-06-2004 01:34:01 11.2 C 8.72 g/m*3 11.2 C 0 km/h
9 25-06-2004 01:46:01 11.1 C 8.76 g/m*3 11.1 C 0 km/h
10 25-06-2004 01:58:01 11 C 8.71 g/m*3 11 C 0 km/h
11 25-06-2004 02:10:01 10.9 C 8.75 g/m*3 10.9 C 0 km/h
12 25-06-2004 02:22:01 10.7 C 8.55 g/m*3 10.7 C 0 km/h
13 25-06-2004 02:34:01 10.5 C 8.53 g/m*3 10.5 C 0 km/h
14 25-06-2004 02:47:02 10.8 C 8.6 g/m*3 10.8 C 0 km/h
15 25-06-2004 02:59:02 10.8 C 8.5 g/m*3 10.8 C 0 km/h
16 25-06-2004 03:11:03 10.6 C 8.3 g/m*3 10.6 C 0 km/h
17 25-06-2004 03:23:03 10.5 C 8.24 g/m*3 10.5 C 0 km/h
18 25-06-2004 03:35:01 10.5 C 8.15 g/m*3 10.5 C 0 km/h
19 25-06-2004 03:47:01 10.3 C 8.14 g/m*3 10.3 C 0 km/h
20 25-06-2004 03:59:01 10.3 C 8.24 g/m*3 10.3 C 0 km/h
21 25-06-2004 04:11:01 10.9 C 8.06 g/m*3 10.9 C 0 km/h
22 25-06-2004 04:23:01 10.8 C 7.91 g/m*3 10.8 C 0 km/h
23 25-06-2004 04:35:01 11 C 7.81 g/m*3 11 C 0 km/h
24 25-06-2004 04:47:01 11 C 7.61 g/m*3 11 C 0 km/h
25 25-06-2004 04:59:01 10.9 C 7.46 g/m*3 10.9 C 0 km/h
Sensor: Nr:Datum:Temp:Abs-Feuchte:Windchill:Wind:
Aussen-T/F 26 25-06-2004 05:11:00 10.7 C 7.66 g/m*3 10.7 C 0 km/h
27 25-06-2004 05:23:00 10.5 C 7.57 g/m*3 10.5 C 0 km/h
28 25-06-2004 05:35:00 10.4 C 7.52 g/m*3 10.4 C 0 km/h
29 25-06-2004 05:47:01 10.4 C 7.42 g/m*3 10.4 C 0 km/h
30 25-06-2004 05:59:01 10.1 C 7.47 g/m*3 10.1 C 0 km/h
31 25-06-2004 06:11:01 10 C 7.52 g/m*3 10 C 0 km/h
32 25-06-2004 06:23:01 10 C 7.61 g/m*3 10 C 0 km/h
33 25-06-2004 06:35:01 10.7 C 7.46 g/m*3 10.7 C 0 km/h
34 25-06-2004 06:47:01 11.2 C 7.3 g/m*3 11.2 C 0 km/h
35 25-06-2004 06:59:01 11.4 C 7.39 g/m*3 11.4 C 0 km/h
36 25-06-2004 07:11:00 11.4 C 7.39 g/m*3 11.4 C 0 km/h
37 25-06-2004 07:23:00 11.4 C 7.49 g/m*3 11.4 C 0 km/h
38 25-06-2004 07:35:00 11.5 C 7.44 g/m*3 11.5 C 0 km/h
39 25-06-2004 07:47:01 11.7 C 7.53 g/m*3 11.7 C 0 km/h
40 25-06-2004 07:59:01 12 C 7.46 g/m*3 12 C 0 km/h
41 25-06-2004 08:11:01 12.2 C 7.34 g/m*3 12.2 C 0 km/h
42 25-06-2004 08:23:01 12.4 C 7.32 g/m*3 12.4 C 0 km/h
43 25-06-2004 08:35:00 12.9 C 7.33 g/m*3 12.9 C 0 km/h
44 25-06-2004 08:47:01 13.3 C 7.51 g/m*3 13.3 C 0 km/h
45 25-06-2004 08:59:01 13.2 C 7.46 g/m*3 13.2 C 0 km/h
46 25-06-2004 09:11:01 13.4 C 7.67 g/m*3 13.4 C 0 km/h
47 25-06-2004 09:23:01 13.9 C 7.55 g/m*3 13.9 C 0 km/h
48 25-06-2004 09:35:00 14.3 C 7.62 g/m*3 14.3 C 0 km/h
49 25-06-2004 09:47:01 14.6 C 7.63 g/m*3 14.6 C 0 km/h
50 25-06-2004 09:59:01 14.4 C 7.42 g/m*3 14.4 C 0 km/h
Sensor: Nr:Datum:Temp:Abs-Feuchte:Windchill:Wind:
Aussen-T/F 51 25-06-2004 10:11:01 15.1 C 7.74 g/m*3 15.1 C 0 km/h
52 25-06-2004 10:23:01 15.5 C 7.53 g/m*3 15.5 C 0 km/h
53 25-06-2004 10:35:00 16 C 7.63 g/m*3 16 C 0 km/h
54 25-06-2004 10:47:01 16.1 C 7.4 g/m*3 16.1 C 0 km/h
55 25-06-2004 10:59:01 16.7 C 7.25 g/m*3 16.7 C 0 km/h
56 25-06-2004 11:11:01 16.7 C 7.11 g/m*3 16.7 C 0 km/h
57 25-06-2004 11:23:01 17.5 C 7.16 g/m*3 17.5 C 0 km/h
58 25-06-2004 11:35:00 17.2 C 7.03 g/m*3 17.2 C 0 km/h
59 25-06-2004 11:47:01 17.1 C 7.13 g/m*3 17.1 C 0 km/h
60 25-06-2004 11:59:01 16.9 C 6.76 g/m*3 16.9 C 0 km/h
61 25-06-2004 12:11:01 17.7 C 6.94 g/m*3 17.7 C 0 km/h
62 25-06-2004 12:23:01 17.2 C 6.74 g/m*3 17.2 C 0 km/h
63 25-06-2004 12:35:01 17.7 C 6.19 g/m*3 17.7 C 0 km/h
64 25-06-2004 12:47:01 17 C 6.22 g/m*3 17 C 0 km/h
65 25-06-2004 12:59:01 17.5 C 6.11 g/m*3 17.5 C 0 km/h
66 25-06-2004 13:11:01 18.6 C 6.37 g/m*3 18.6 C 0 km/h
67 25-06-2004 13:23:01 18.4 C 6.29 g/m*3 18.4 C 0 km/h
68 25-06-2004 13:35:01 18.5 C 6.49 g/m*3 18.5 C 0 km/h
69 25-06-2004 13:47:01 18 C 6.91 g/m*3 18 C 0 km/h
70 25-06-2004 13:59:01 18.4 C 7.08 g/m*3 18.4 C 0 km/h
71 25-06-2004 14:11:01 19.3 C 6.8 g/m*3 19.3 C 0 km/h
72 25-06-2004 14:23:01 19.3 C 6.8 g/m*3 19.3 C 0 km/h
73 25-06-2004 14:35:01 18.5 C 6.65 g/m*3 18.5 C 0 km/h
74 25-06-2004 14:47:01 18.3 C 7.19 g/m*3 18.3 C 0 km/h
75 25-06-2004 14:59:01 18 C 7.22 g/m*3 18 C 0 km/h
Sensor: Nr:Datum:Temp:Abs-Feuchte:Windchill:Wind:
Aussen-T/F 76 25-06-2004 15:11:01 18.4 C 7.08 g/m*3 18.4 C 0 km/h
77 25-06-2004 15:23:01 18.2 C 7.15 g/m*3 18.2 C 0 km/h
78 25-06-2004 15:35:01 20.3 C 7.39 g/m*3 20.3 C 0 km/h
79 25-06-2004 15:47:01 19.6 C 7.6 g/m*3 19.6 C 0 km/h
80 25-06-2004 15:59:01 18.5 C 7.44 g/m*3 18.5 C 0 km/h
81 25-06-2004 16:11:01 17.9 C 6.26 g/m*3 17.9 C 0 km/h
82 25-06-2004 16:23:01 17.7 C 6.64 g/m*3 17.7 C 0 km/h
83 25-06-2004 16:35:01 17.6 C 6.75 g/m*3 17.6 C 0 km/h
84 25-06-2004 16:47:01 17.8 C 6.83 g/m*3 17.8 C 0 km/h
85 25-06-2004 16:59:01 18 C 6.91 g/m*3 18 C 0 km/h
86 25-06-2004 17:11:01 18.5 C 6.8 g/m*3 18.5 C 0 km/h
87 25-06-2004 17:23:01 18.6 C 7 g/m*3 18.6 C 0 km/h
88 25-06-2004 17:35:01 18.5 C 7.12 g/m*3 18.5 C 0 km/h
89 25-06-2004 17:47:01 17.6 C 6.9 g/m*3 17.6 C 0 km/h
90 25-06-2004 17:59:01 17.2 C 7.18 g/m*3 17.2 C 0 km/h
91 25-06-2004 18:11:01 17.2 C 7.47 g/m*3 17.2 C 0 km/h
92 25-06-2004 18:23:01 17.1 C 7.57 g/m*3 17.1 C 0 km/h
93 25-06-2004 18:35:01 16.9 C 6.76 g/m*3 16.9 C 0 km/h
94 25-06-2004 18:47:01 17.3 C 7.07 g/m*3 17.3 C 0 km/h
95 25-06-2004 18:59:01 17.5 C 7.45 g/m*3 17.5 C 0 km/h
96 25-06-2004 19:11:01 17.5 C 7.31 g/m*3 17.5 C 0 km/h
97 25-06-2004 19:23:01 17.1 C 7.42 g/m*3 17.1 C 0 km/h
98 25-06-2004 19:35:01 17.4 C 7.11 g/m*3 17.4 C 0 km/h
99 25-06-2004 19:47:01 17.3 C 7.07 g/m*3 17.3 C 0 km/h
100 25-06-2004 19:59:01 17.4 C 7.41 g/m*3 17.4 C 0 km/h
Sensor: Nr:Datum:Temp:Abs-Feuchte:Windchill:Wind:
Aussen-T/F 101 25-06-2004 20:11:01 17.6 C 7.8 g/m*3 17.6 C 0 km/h
102 25-06-2004 20:23:01 18.2 C 7.46 g/m*3 18.2 C 0 km/h
103 25-06-2004 20:35:01 17.9 C 7.33 g/m*3 17.9 C 0 km/h
104 25-06-2004 20:47:02 17.3 C 7.81 g/m*3 17.3 C 0 km/h
105 25-06-2004 20:59:02 16.7 C 7.96 g/m*3 16.7 C 0 km/h
106 25-06-2004 21:11:01 16.2 C 8 g/m*3 16.2 C 0 km/h
107 25-06-2004 21:23:02 15.4 C 7.75 g/m*3 15.4 C 0 km/h
108 25-06-2004 21:35:02 14.8 C 7.73 g/m*3 14.8 C 0 km/h
109 25-06-2004 21:47:02 14.3 C 7.62 g/m*3 14.3 C 0 km/h
110 25-06-2004 21:59:02 14 C 7.6 g/m*3 14 C 0 km/h
111 25-06-2004 22:11:02 13.6 C 7.77 g/m*3 13.6 C 0 km/h
112 25-06-2004 22:23:02 13.4 C 7.79 g/m*3 13.4 C 0 km/h
113 25-06-2004 22:35:02 13.1 C 7.76 g/m*3 13.1 C 0 km/h
114 25-06-2004 22:47:02 13.1 C 7.99 g/m*3 13.1 C 0 km/h
115 25-06-2004 22:59:02 12.8 C 7.95 g/m*3 12.8 C 0 km/h
116 25-06-2004 23:11:02 12.7 C 8.13 g/m*3 12.7 C 0 km/h
117 25-06-2004 23:23:02 12.3 C 8.04 g/m*3 12.3 C 0 km/h
118 25-06-2004 23:35:02 12 C 8.1 g/m*3 12 C 0 km/h
119 25-06-2004 23:47:01 11.8 C 8.21 g/m*3 11.8 C 0 km/h
120 25-06-2004 23:59:01 11.7 C 8.16 g/m*3 11.7 C 0 km/h
121 26-06-2004 00:11:01 11.7 C 8.16 g/m*3 11.7 C 0 km/h
122 26-06-2004 00:23:00 11.5 C 8.16 g/m*3 11.5 C 0 km/h
123 26-06-2004 00:35:00 11.3 C 8.06 g/m*3 11.3 C 0 km/h
124 26-06-2004 00:47:01 11 C 8.01 g/m*3 11 C 0 km/h
125 26-06-2004 00:59:01 11 C 8.11 g/m*3 11 C 0 km/h
Sensor: Nr:Datum:Temp:Abs-Feuchte:Windchill:Wind:
Aussen-T/F 126 26-06-2004 01:11:01 10.8 C 8.11 g/m*3 10.8 C 0 km/h
127 26-06-2004 01:23:01 10.7 C 8.05 g/m*3 10.7 C 0 km/h
128 26-06-2004 01:35:01 10.5 C 8.05 g/m*3 10.5 C 0 km/h
129 26-06-2004 01:47:01 10.2 C 7.9 g/m*3 10.2 C 0 km/h
130 26-06-2004 01:59:01 10.2 C 7.99 g/m*3 10.2 C 0 km/h
131 26-06-2004 02:11:01 10 C 8.08 g/m*3 10 C 0 km/h
132 26-06-2004 02:23:01 9.8 C 8.16 g/m*3 9.8 C 0 km/h
133 26-06-2004 02:35:01 9.6 C 7.97 g/m*3 9.6 C 0 km/h
134 26-06-2004 02:48:03 9.5 C 8.01 g/m*3 9.5 C 0 km/h
135 26-06-2004 03:00:03 9.4 C 7.87 g/m*3 9.4 C 0 km/h
136 26-06-2004 03:12:03 9.3 C 7.91 g/m*3 9.3 C 0 km/h
137 26-06-2004 03:24:03 9.3 C 7.91 g/m*3 9.3 C 0 km/h
138 26-06-2004 03:36:02 9.2 C 7.86 g/m*3 9.2 C 0 km/h
139 26-06-2004 03:48:02 9 C 7.76 g/m*3 9 C 0 km/h
140 26-06-2004 04:00:02 8.9 C 7.8 g/m*3 8.9 C 0 km/h
141 26-06-2004 04:12:02 8.8 C 7.75 g/m*3 8.8 C 0 km/h
142 26-06-2004 04:24:02 8.6 C 7.73 g/m*3 8.6 C 0 km/h
143 26-06-2004 04:36:02 8.6 C 7.73 g/m*3 8.6 C 0 km/h
144 26-06-2004 04:48:01 8.5 C 7.68 g/m*3 8.5 C 0 km/h
145 26-06-2004 05:00:01 8.4 C 7.55 g/m*3 8.4 C 0 km/h
146 26-06-2004 05:12:01 8.4 C 7.55 g/m*3 8.4 C 0 km/h
147 26-06-2004 05:24:01 8.1 C 7.41 g/m*3 8.1 C 0 km/h
148 26-06-2004 05:36:01 8 C 7.44 g/m*3 8 C 0 km/h
149 26-06-2004 05:48:01 7.9 C 7.47 g/m*3 7.9 C 0 km/h
150 26-06-2004 06:00:01 7.9 C 7.47 g/m*3 7.9 C 0 km/h
Sensor: Nr:Datum:Temp:Abs-Feuchte:Windchill:Wind:
Aussen-T/F 151 26-06-2004 06:12:00 8 C 7.36 g/m*3 8 C 0 km/h
152 26-06-2004 06:24:00 7.9 C 7.47 g/m*3 7.9 C 0 km/h
153 26-06-2004 06:36:00 8 C 7.52 g/m*3 8 C 0 km/h
154 26-06-2004 06:48:01 8.5 C 7.85 g/m*3 8.5 C 0 km/h
155 26-06-2004 07:00:01 8.3 C 7.67 g/m*3 8.3 C 0 km/h
156 26-06-2004 07:12:01 8.2 C 7.62 g/m*3 8.2 C 0 km/h
157 26-06-2004 07:24:01 8.2 C 7.54 g/m*3 8.2 C 0 km/h
158 26-06-2004 07:36:00 8.6 C 7.82 g/m*3 8.6 C 0 km/h
159 26-06-2004 07:48:01 8.8 C 7.83 g/m*3 8.8 C 0 km/h
160 26-06-2004 08:00:01 9 C 7.76 g/m*3 9 C 0 km/h
161 26-06-2004 08:12:01 9.3 C 7.91 g/m*3 9.3 C 0 km/h
162 26-06-2004 08:24:01 9.4 C 7.96 g/m*3 9.4 C 0 km/h
163 26-06-2004 08:36:00 9.6 C 8.06 g/m*3 9.6 C 0 km/h
164 26-06-2004 08:48:01 10 C 8.17 g/m*3 10 C 0 km/h
165 26-06-2004 09:00:01 10.9 C 8.45 g/m*3 10.9 C 0 km/h
166 26-06-2004 09:12:01 11.5 C 8.47 g/m*3 11.5 C 0 km/h
167 26-06-2004 09:24:01 12.4 C 8.74 g/m*3 12.4 C 0 km/h
168 26-06-2004 09:36:01 13.1 C 8.79 g/m*3 13.1 C 0 km/h
169 26-06-2004 09:48:01 14 C 9.05 g/m*3 14 C 0 km/h
170 26-06-2004 10:00:01 14.7 C 9.07 g/m*3 14.7 C 0 km/h
171 26-06-2004 10:12:01 15.5 C 9.25 g/m*3 15.5 C 0 km/h
172 26-06-2004 10:24:01 16.4 C 9.21 g/m*3 16.4 C 0 km/h
173 26-06-2004 10:36:01 17.3 C 9.28 g/m*3 17.3 C 0 km/h
174 26-06-2004 10:48:01 17.5 C 9.24 g/m*3 17.5 C 0 km/h
175 26-06-2004 11:00:01 17.1 C 9.32 g/m*3 17.1 C 0 km/h
Sensor: Nr:Datum:Temp:Abs-Feuchte:Windchill:Wind:
Aussen-T/F 176 26-06-2004 11:12:01 17.2 C 9.08 g/m*3 17.2 C 0 km/h
177 26-06-2004 11:24:01 18.9 C 8.75 g/m*3 18.9 C 0 km/h
178 26-06-2004 11:36:01 19.2 C 8.41 g/m*3 19.2 C 0 km/h
179 26-06-2004 11:48:01 18.7 C 9.29 g/m*3 18.7 C 0 km/h
180 26-06-2004 12:00:01 21.4 C 8.44 g/m*3 21.4 C 0 km/h
181 26-06-2004 12:12:01 22.1 C 7.42 g/m*3 22.1 C 0 km/h
182 26-06-2004 12:24:01 20.8 C 8.69 g/m*3 20.8 C 0 km/h
183 26-06-2004 12:36:01 21.3 C 8.57 g/m*3 21.3 C 0 km/h
184 26-06-2004 12:48:01 22.5 C 7.59 g/m*3 22.5 C 0 km/h
185 26-06-2004 13:00:01 21.8 C 7.1 g/m*3 21.8 C 0 km/h
186 26-06-2004 13:12:01 21.9 C 9.07 g/m*3 21.9 C 0 km/h
187 26-06-2004 13:24:01 22.6 C 9.24 g/m*3 22.6 C 0 km/h
188 26-06-2004 13:36:01 23.9 C 6.92 g/m*3 23.9 C 0 km/h
189 26-06-2004 13:48:01 24 C 6.09 g/m*3 24 C 0 km/h
190 26-06-2004 14:00:01 23.9 C 6.27 g/m*3 23.9 C 0 km/h
191 26-06-2004 14:12:01 23.8 C 6.24 g/m*3 23.8 C 0 km/h
192 26-06-2004 14:24:01 23.7 C 7.7 g/m*3 23.7 C 0 km/h
193 26-06-2004 14:36:01 24.9 C 7.1 g/m*3 24.9 C 0 km/h
194 26-06-2004 14:48:01 24.3 C 6.64 g/m*3 24.3 C 0 km/h
195 26-06-2004 15:00:01 23.6 C 6.59 g/m*3 23.6 C 0 km/h
196 26-06-2004 15:12:01 25.4 C 7.77 g/m*3 25.4 C 0 km/h
197 26-06-2004 15:24:01 25.5 C 6.87 g/m*3 25.5 C 0 km/h
198 26-06-2004 15:36:01 25.6 C 6.43 g/m*3 25.6 C 0 km/h
199 26-06-2004 15:48:01 25.3 C 6.55 g/m*3 25.3 C 0 km/h
200 26-06-2004 16:00:01 24.7 C 7.02 g/m*3 24.7 C 0 km/h
Sensor: Nr:Datum:Temp:Abs-Feuchte:Windchill:Wind:
Aussen-T/F 201 26-06-2004 16:12:01 24.4 C 6.45 g/m*3 24.4 C 0 km/h
202 26-06-2004 16:24:01 24.3 C 6.42 g/m*3 24.3 C 0 km/h
203 26-06-2004 16:36:01 24 C 6.31 g/m*3 24 C 0 km/h
204 26-06-2004 16:48:01 23.9 C 6.71 g/m*3 23.9 C 0 km/h
205 26-06-2004 17:00:02 24.2 C 7.48 g/m*3 24.2 C 0 km/h
206 26-06-2004 17:12:01 24.6 C 7.43 g/m*3 24.6 C 0 km/h
207 26-06-2004 17:24:01 24 C 6.53 g/m*3 24 C 0 km/h
208 26-06-2004 17:36:01 24.3 C 7.52 g/m*3 24.3 C 0 km/h
209 26-06-2004 17:48:01 24.5 C 8.06 g/m*3 24.5 C 0 km/h
210 26-06-2004 18:00:02 23.9 C 8.65 g/m*3 23.9 C 0 km/h
211 26-06-2004 18:12:01 23.7 C 8.77 g/m*3 23.7 C 0 km/h
212 26-06-2004 18:24:01 23.3 C 8.78 g/m*3 23.3 C 0 km/h
213 26-06-2004 18:36:02 22.9 C 8.99 g/m*3 22.9 C 0 km/h
214 26-06-2004 18:48:02 22.6 C 9.24 g/m*3 22.6 C 0 km/h
215 26-06-2004 19:00:03 22.2 C 8.83 g/m*3 22.2 C 0 km/h
216 26-06-2004 19:12:02 21.9 C 9.26 g/m*3 21.9 C 0 km/h
217 26-06-2004 19:24:02 21.5 C 8.86 g/m*3 21.5 C 0 km/h
218 26-06-2004 19:36:02 21.2 C 8.9 g/m*3 21.2 C 0 km/h
219 26-06-2004 19:48:01 20.8 C 8.87 g/m*3 20.8 C 0 km/h
220 26-06-2004 20:00:01 20.5 C 8.72 g/m*3 20.5 C 0 km/h
221 26-06-2004 20:12:01 20.3 C 8.79 g/m*3 20.3 C 0 km/h
222 26-06-2004 20:24:01 20.1 C 8.52 g/m*3 20.1 C 0 km/h
223 26-06-2004 20:36:01 20 C 8.81 g/m*3 20 C 0 km/h
224 26-06-2004 20:48:01 19.8 C 8.88 g/m*3 19.8 C 0 km/h
225 26-06-2004 21:00:01 19.5 C 8.73 g/m*3 19.5 C 0 km/h
Sensor: Nr:Datum:Temp:Abs-Feuchte:Windchill:Wind:
Aussen-T/F 226 26-06-2004 21:12:01 19.3 C 8.63 g/m*3 19.3 C 0 km/h
227 26-06-2004 21:24:01 19.2 C 8.74 g/m*3 19.2 C 0 km/h
228 26-06-2004 21:36:01 19 C 8.8 g/m*3 19 C 0 km/h
229 26-06-2004 21:48:01 18.7 C 8.81 g/m*3 18.7 C 0 km/h
230 26-06-2004 22:00:01 18.5 C 8.7 g/m*3 18.5 C 0 km/h
231 26-06-2004 22:12:01 18.4 C 8.65 g/m*3 18.4 C 0 km/h
232 26-06-2004 22:24:01 18.3 C 8.76 g/m*3 18.3 C 0 km/h
233 26-06-2004 22:36:01 18.2 C 9.17 g/m*3 18.2 C 0 km/h
234 26-06-2004 22:48:01 17.4 C 9.78 g/m*3 17.4 C 0 km/h
235 26-06-2004 23:00:01 16.9 C 9.35 g/m*3 16.9 C 0 km/h
236 26-06-2004 23:12:01 17.1 C 8.88 g/m*3 17.1 C 0 km/h
237 26-06-2004 23:24:00 17.4 C 9.04 g/m*3 17.4 C 0 km/h
238 26-06-2004 23:36:00 17.4 C 9.34 g/m*3 17.4 C 0 km/h
239 26-06-2004 23:48:01 17.3 C 8.84 g/m*3 17.3 C 0 km/h
240 27-06-2004 00:00:01 17.2 C 8.49 g/m*3 17.2 C 0 km/h
241 27-06-2004 00:12:01 17.2 C 9.08 g/m*3 17.2 C 0 km/h
242 27-06-2004 00:24:01 17 C 8.97 g/m*3 17 C 0 km/h
243 27-06-2004 00:36:01 17 C 8.97 g/m*3 17 C 0 km/h
244 27-06-2004 00:48:01 17 C 8.97 g/m*3 17 C 0 km/h
245 27-06-2004 01:00:01 16.5 C 9.41 g/m*3 16.5 C 0 km/h
246 27-06-2004 01:12:01 16.4 C 9.35 g/m*3 16.4 C 0 km/h
247 27-06-2004 01:24:01 16.4 C 9.63 g/m*3 16.4 C 0 km/h
248 27-06-2004 01:36:01 16.5 C 9.55 g/m*3 16.5 C 0 km/h
249 27-06-2004 01:48:01 16.5 C 9.55 g/m*3 16.5 C 0 km/h
250 27-06-2004 02:00:01 16.4 C 9.49 g/m*3 16.4 C 0 km/h
Sensor: Nr:Datum:Temp:Abs-Feuchte:Windchill:Wind:
Aussen-T/F 251 27-06-2004 02:12:01 16.4 C 9.63 g/m*3 16.4 C 0 km/h
252 27-06-2004 02:24:01 16.2 C 10.07 g/m*3 16.2 C 0 km/h
253 27-06-2004 02:36:01 15.6 C 10.24 g/m*3 15.6 C 0 km/h
254 27-06-2004 02:49:02 15.6 C 10.24 g/m*3 15.6 C 0 km/h
255 27-06-2004 03:01:02 15.4 C 10.51 g/m*3 15.4 C 0 km/h
256 27-06-2004 03:13:02 14.7 C 10.7 g/m*3 14.7 C 0 km/h
257 27-06-2004 03:25:02 14.7 C 10.95 g/m*3 14.7 C 0 km/h
258 27-06-2004 03:37:02 14.9 C 11.22 g/m*3 14.9 C 0 km/h
259 27-06-2004 03:49:02 15.1 C 11.35 g/m*3 15.1 C 0 km/h
260 27-06-2004 04:01:02 15.1 C 11.22 g/m*3 15.1 C 0 km/h
261 27-06-2004 04:13:02 15.2 C 11.29 g/m*3 15.2 C 0 km/h
262 27-06-2004 04:25:02 15.1 C 11.09 g/m*3 15.1 C 0 km/h
263 27-06-2004 04:37:02 15 C 10.9 g/m*3 15 C 0 km/h
264 27-06-2004 04:49:02 15 C 10.9 g/m*3 15 C 0 km/h
265 27-06-2004 05:01:01 15 C 10.9 g/m*3 15 C 0 km/h
266 27-06-2004 05:13:01 15 C 11.03 g/m*3 15 C 0 km/h
267 27-06-2004 05:25:01 15 C 11.03 g/m*3 15 C 0 km/h
268 27-06-2004 05:37:01 14.9 C 11.09 g/m*3 14.9 C 0 km/h
269 27-06-2004 05:49:01 15 C 11.16 g/m*3 15 C 0 km/h
270 27-06-2004 06:01:01 15.1 C 11.09 g/m*3 15.1 C 0 km/h
271 27-06-2004 06:13:01 15.2 C 11.16 g/m*3 15.2 C 0 km/h
272 27-06-2004 06:25:01 15.4 C 11.3 g/m*3 15.4 C 0 km/h
273 27-06-2004 06:37:01 15.7 C 11.37 g/m*3 15.7 C 0 km/h
274 27-06-2004 06:49:01 15.7 C 11.24 g/m*3 15.7 C 0 km/h
275 27-06-2004 07:01:01 15.8 C 11.31 g/m*3 15.8 C 0 km/h
Sensor: Nr:Datum:Temp:Abs-Feuchte:Windchill:Wind:
Aussen-T/F 276 27-06-2004 07:13:01 16 C 11.31 g/m*3 16 C 0 km/h
277 27-06-2004 07:25:01 16.3 C 11.52 g/m*3 16.3 C 0 km/h
278 27-06-2004 07:37:01 16.7 C 11.51 g/m*3 16.7 C 0 km/h
279 27-06-2004 07:49:01 16.8 C 11.29 g/m*3 16.8 C 0 km/h
280 27-06-2004 08:01:01 17 C 11.29 g/m*3 17 C 0 km/h
281 27-06-2004 08:13:01 17.2 C 11.42 g/m*3 17.2 C 0 km/h
282 27-06-2004 08:25:01 17.1 C 11.21 g/m*3 17.1 C 0 km/h
283 27-06-2004 08:37:01 17.1 C 11.5 g/m*3 17.1 C 0 km/h
284 27-06-2004 08:49:01 17.3 C 11.79 g/m*3 17.3 C 0 km/h
285 27-06-2004 09:01:02 17.3 C 11.64 g/m*3 17.3 C 0 km/h
286 27-06-2004 09:13:03 17.1 C 11.35 g/m*3 17.1 C 0 km/h
287 27-06-2004 09:25:00 16.6 C 11.44 g/m*3 16.6 C 0 km/h
288 27-06-2004 09:37:51 16.1 C 11.51 g/m*3 16.1 C 0 km/h
289 27-06-2004 10:20:44 15.4 C 11.69 g/m*3 15.4 C 0 km/h
290 27-06-2004 10:32:01 16 C 11.99 g/m*3 16 C 0 km/h
291 27-06-2004 10:44:01 16.9 C 12.66 g/m*3 16.9 C 0 km/h
292 27-06-2004 10:56:00 17.4 C 12.45 g/m*3 17.4 C 0 km/h
293 27-06-2004 11:08:02 17.7 C 12.98 g/m*3 17.7 C 0 km/h
294 27-06-2004 11:20:02 19.2 C 13.52 g/m*3 19.2 C 0 km/h
295 27-06-2004 11:32:02 20.5 C 13.35 g/m*3 20.5 C 0 km/h
296 27-06-2004 11:44:02 21.2 C 13.16 g/m*3 21.2 C 0 km/h
297 27-06-2004 11:56:01 21.6 C 12.9 g/m*3 21.6 C 0 km/h
298 27-06-2004 12:08:01 21.4 C 12.37 g/m*3 21.4 C 0 km/h
299 27-06-2004 12:20:01 20.8 C 13.04 g/m*3 20.8 C 0 km/h
300 27-06-2004 12:32:01 21.5 C 13.01 g/m*3 21.5 C 0 km/h
Sensor: Nr:Datum:Temp:Abs-Feuchte:Windchill:Wind:
Aussen-T/F 301 27-06-2004 12:44:01 22.4 C 12.11 g/m*3 22.4 C 0 km/h
302 27-06-2004 12:56:01 22.7 C 11.72 g/m*3 22.7 C 0 km/h
303 27-06-2004 13:08:01 23.2 C 11.02 g/m*3 23.2 C 0 km/h
304 27-06-2004 13:20:01 25.1 C 11.81 g/m*3 25.1 C 0 km/h
305 27-06-2004 13:32:01 25.3 C 10.77 g/m*3 25.3 C 0 km/h
306 27-06-2004 13:44:01 24.9 C 10.3 g/m*3 24.9 C 0 km/h
307 27-06-2004 13:56:01 24.7 C 10.41 g/m*3 24.7 C 0 km/h
308 27-06-2004 14:08:01 25.3 C 11.24 g/m*3 25.3 C 0 km/h
309 27-06-2004 14:20:01 25.4 C 11.06 g/m*3 25.4 C 0 km/h
310 27-06-2004 14:32:01 26 C 11.2 g/m*3 26 C 0 km/h
311 27-06-2004 14:44:01 26.1 C 10.53 g/m*3 26.1 C 0 km/h
312 27-06-2004 14:56:01 26.7 C 10.38 g/m*3 26.7 C 0 km/h
313 27-06-2004 15:08:01 27.2 C 10.67 g/m*3 27.2 C 0 km/h
314 27-06-2004 15:20:01 27.4 C 10.26 g/m*3 27.4 C 0 km/h
315 27-06-2004 15:32:01 27.7 C 11.23 g/m*3 27.7 C 0 km/h
316 27-06-2004 15:44:01 28.3 C 10.78 g/m*3 28.3 C 0 km/h
317 27-06-2004 15:56:01 30.4 C 10.85 g/m*3 30.4 C 0 km/h
318 27-06-2004 16:08:01 31 C 11.2 g/m*3 31 C 0 km/h
319 27-06-2004 16:20:01 31.3 C 10.41 g/m*3 31.3 C 0 km/h
320 27-06-2004 16:32:01 31 C 11.2 g/m*3 31 C 0 km/h
321 27-06-2004 16:44:01 30.6 C 10.65 g/m*3 30.6 C 0 km/h
322 27-06-2004 16:56:01 30.7 C 10.08 g/m*3 30.7 C 0 km/h
323 27-06-2004 17:08:01 30.1 C 10.37 g/m*3 30.1 C 0 km/h
324 27-06-2004 17:20:01 29.8 C 10.5 g/m*3 29.8 C 0 km/h
325 27-06-2004 17:32:01 29.6 C 10.68 g/m*3 29.6 C 0 km/h
Sensor: Nr:Datum:Temp:Abs-Feuchte:Windchill:Wind:
Aussen-T/F 326 27-06-2004 17:44:01 29.7 C 10.44 g/m*3 29.7 C 0 km/h
327 27-06-2004 17:56:02 29.3 C 11.68 g/m*3 29.3 C 0 km/h
328 27-06-2004 18:08:02 28.7 C 10.46 g/m*3 28.7 C 0 km/h
329 27-06-2004 18:20:02 28.4 C 9.45 g/m*3 28.4 C 0 km/h
330 27-06-2004 18:32:01 28.1 C 11.48 g/m*3 28.1 C 0 km/h
331 27-06-2004 18:44:01 27.9 C 11.9 g/m*3 27.9 C 0 km/h
332 27-06-2004 18:56:01 26.9 C 9.73 g/m*3 26.9 C 0 km/h
333 27-06-2004 19:08:01 26.2 C 9.85 g/m*3 26.2 C 0 km/h
334 27-06-2004 19:20:02 25.8 C 10.83 g/m*3 25.8 C 0 km/h
335 27-06-2004 19:32:01 25.4 C 11.06 g/m*3 25.4 C 0 km/h
336 27-06-2004 19:44:01 25 C 11.05 g/m*3 25 C 0 km/h
337 27-06-2004 19:56:01 25 C 11.05 g/m*3 25 C 0 km/h
338 27-06-2004 20:08:01 24.5 C 11.19 g/m*3 24.5 C 0 km/h
339 27-06-2004 20:20:01 24.1 C 11.6 g/m*3 24.1 C 0 km/h
340 27-06-2004 20:32:01 24 C 11.75 g/m*3 24 C 0 km/h
341 27-06-2004 20:44:01 24.1 C 10.94 g/m*3 24.1 C 0 km/h
342 27-06-2004 20:56:01 23.9 C 11.25 g/m*3 23.9 C 0 km/h
343 27-06-2004 21:08:01 23.9 C 11.47 g/m*3 23.9 C 0 km/h
344 27-06-2004 21:20:01 23.7 C 11.55 g/m*3 23.7 C 0 km/h
345 27-06-2004 21:32:01 23.6 C 11.91 g/m*3 23.6 C 0 km/h
346 27-06-2004 21:44:01 23.1 C 11.37 g/m*3 23.1 C 0 km/h
347 27-06-2004 21:56:02 22.9 C 11.65 g/m*3 22.9 C 0 km/h
348 27-06-2004 22:08:01 22.8 C 11.58 g/m*3 22.8 C 0 km/h
349 27-06-2004 22:20:01 22.3 C 11.65 g/m*3 22.3 C 0 km/h
350 27-06-2004 22:32:01 21.8 C 11.7 g/m*3 21.8 C 0 km/h
Sensor: Nr:Datum:Temp:Abs-Feuchte:Windchill:Wind:
Aussen-T/F 351 27-06-2004 22:44:01 21.6 C 11.19 g/m*3 21.6 C 0 km/h
352 27-06-2004 22:56:01 21.3 C 10.62 g/m*3 21.3 C 0 km/h
353 27-06-2004 23:08:01 20.8 C 10.68 g/m*3 20.8 C 0 km/h
354 27-06-2004 23:20:02 20.3 C 10.38 g/m*3 20.3 C 0 km/h
355 27-06-2004 23:32:02 19.9 C 10.48 g/m*3 19.9 C 0 km/h
356 27-06-2004 23:44:02 19.4 C 10.18 g/m*3 19.4 C 0 km/h
357 27-06-2004 23:56:01 18.9 C 10.04 g/m*3 18.9 C 0 km/h

Legende:
   Min
   Max


Maximal/Minimal-Werte vom 25.06.2004 - 27.06.2004

Sensor Min Max Avg
Temp
(Aussen-T/F)
7.9 °C
26-06-2004  05:48:01
31.3 °C
27-06-2004  16:20:01
17.29 °C
Abs-Feuchte
(Aussen-T/F)
6.09 g/m*3
26-06-2004  13:48:01
13.52 g/m*3
27-06-2004  11:20:02
8.86 g/m*3
Windchill
(Aussen-T/F)
7.9 C
26-06-2004  05:48:01
31.3 C
27-06-2004  16:20:01
17.24 C

Die Daten stammen von einer Davis Vantage Pro 2 Wetter-Station und werden unter Linux mit der Software wview2wettercgi und aufbereitet. Alle Angaben erfolgen ohne Gewähr für ihre Vollständigkeit oder Richtigkeit.
Kontakt: Rainer Krienke krienke@uni-koblenz.de . Meine Webseiten an der Uni Koblenz oder privat.
Version: $Revision: 0.78 $